Centerville, Nevada
Current Conditions -  °F | °C
As of 7:53 AM on Sunday 25 Jan 2015 (Local Time) from KTVL Reporting Station
Clear Clear  
Wind Chill: 24°   Ceiling: Unl
Heat Index: 29°   Visibility: 10mi
Dew Point: 22°   Wind: 5mph
Humidity: 75%   Direction: 180°S
Pressure: 30.39"   Gusts: NA
Location:  38.9417°N, 119.681°W
Report Text: KTVL 251553Z AUTO 18004KT 10SM CLR M02/M06 A3039 RMK AO2 SLP284 T10171056
Loading
Personal Weather Stations






























Interactive Weather Map New forecast layout! Learn more

10-Day Weather Forecast

Advertisements
Track Severe Weather on mobile